createdAt,value
2018-01-24T00:02:28.088Z,10.64
2018-01-24T00:04:56.435Z,11.25
2018-01-24T00:07:24.808Z,11.84
2018-01-24T00:09:53.162Z,11.20
2018-01-24T00:12:21.532Z,12.06
2018-01-24T00:14:49.887Z,11.97
2018-01-24T00:17:18.271Z,11.70
2018-01-24T00:19:46.638Z,10.72
2018-01-24T00:22:14.983Z,11.76
2018-01-24T00:24:43.331Z,11.58
2018-01-24T00:27:11.683Z,11.55
2018-01-24T00:29:40.047Z,11.24
2018-01-24T00:32:08.390Z,12.24
2018-01-24T00:34:36.738Z,11.49
2018-01-24T00:37:05.090Z,11.53
2018-01-24T00:39:33.470Z,12.00
2018-01-24T00:42:01.826Z,11.52
2018-01-24T00:44:30.194Z,11.63
2018-01-24T00:46:58.535Z,12.34
2018-01-24T00:49:26.879Z,12.81
2018-01-24T00:51:55.235Z,11.77
2018-01-24T00:54:23.616Z,14.14
2018-01-24T00:56:51.958Z,14.21
2018-01-24T00:59:20.330Z,14.63
2018-01-24T01:01:48.702Z,15.19
2018-01-24T01:04:17.039Z,16.00
2018-01-24T01:06:45.410Z,16.57
2018-01-24T01:09:13.792Z,14.89
2018-01-24T01:11:42.134Z,13.89
2018-01-24T01:14:11.307Z,13.25
2018-01-24T01:16:39.664Z,14.71
2018-01-24T01:19:08.042Z,14.40
2018-01-24T01:21:36.394Z,16.10
2018-01-24T01:24:04.782Z,12.60
2018-01-24T01:26:33.146Z,13.06
2018-01-24T01:29:02.427Z,13.65
2018-01-24T01:31:30.762Z,14.04
2018-01-24T01:33:59.106Z,13.37
2018-01-24T01:36:27.453Z,13.57
2018-01-24T01:38:55.810Z,12.96
2018-01-24T01:41:24.206Z,13.99
2018-01-24T01:43:52.562Z,12.72
2018-01-24T01:46:20.914Z,13.40
2018-01-24T01:48:49.255Z,13.12
2018-01-24T01:51:17.603Z,12.90
2018-01-24T01:53:45.983Z,13.66
2018-01-24T01:56:14.324Z,12.89
2018-01-24T01:58:42.669Z,12.84
2018-01-24T02:01:11.038Z,12.69
2018-01-24T02:03:39.378Z,13.30
2018-01-24T02:06:07.722Z,13.48
2018-01-24T02:08:36.070Z,12.46
2018-01-24T02:11:04.448Z,12.88
2018-01-24T02:13:32.797Z,12.54
2018-01-24T02:16:21.550Z,12.70
2018-01-24T02:18:49.906Z,13.73
2018-01-24T02:21:18.250Z,13.31
2018-01-24T02:23:46.631Z,12.74
2018-01-24T02:26:14.978Z,12.20
2018-01-24T02:28:43.318Z,12.55
2018-01-24T02:31:11.666Z,11.75
2018-01-24T02:33:40.010Z,12.44
2018-01-24T02:36:08.386Z,12.21
2018-01-24T02:38:48.391Z,13.29
2018-01-24T02:41:16.758Z,13.59
2018-01-24T02:43:45.101Z,12.92
2018-01-24T02:46:13.473Z,12.67
2018-01-24T02:48:41.812Z,12.53
2018-01-24T02:51:10.186Z,12.73
2018-01-24T02:53:38.538Z,12.70
2018-01-24T02:56:06.919Z,12.96
2018-01-24T02:58:35.311Z,14.01
2018-01-24T03:01:03.642Z,14.16
2018-01-24T03:03:31.991Z,13.81
2018-01-24T03:06:00.354Z,13.67
2018-01-24T03:08:28.709Z,12.78
2018-01-24T03:10:57.065Z,13.65
2018-01-24T03:13:25.410Z,13.98
2018-01-24T03:15:53.754Z,14.00
2018-01-24T03:18:22.137Z,13.96
2018-01-24T03:20:50.480Z,13.63
2018-01-24T03:23:18.831Z,13.42
2018-01-24T03:25:47.163Z,13.74
2018-01-24T03:28:15.518Z,13.80
2018-01-24T03:30:43.887Z,14.60
2018-01-24T03:33:12.251Z,14.03
2018-01-24T03:35:40.618Z,14.20
2018-01-24T03:38:08.958Z,14.73
2018-01-24T03:40:37.306Z,14.64
2018-01-24T03:43:05.650Z,14.49
2018-01-24T03:45:34.026Z,13.75
2018-01-24T03:48:02.390Z,14.08
2018-01-24T03:50:30.776Z,14.00
2018-01-24T03:52:59.142Z,13.97
2018-01-24T03:55:27.494Z,15.01
2018-01-24T03:57:55.838Z,13.97
2018-01-24T04:00:38.919Z,14.03
2018-01-24T04:03:07.263Z,13.73
2018-01-24T04:05:35.610Z,12.70
2018-01-24T04:08:03.988Z,12.36
2018-01-24T04:10:32.331Z,13.46
2018-01-24T04:13:00.676Z,13.93
2018-01-24T04:15:29.059Z,13.00
2018-01-24T04:17:57.419Z,13.03
2018-01-24T04:20:25.914Z,13.78
2018-01-24T04:22:54.254Z,13.29
2018-01-24T04:25:22.602Z,12.77
2018-01-24T04:27:50.982Z,12.87
2018-01-24T04:30:19.365Z,11.86
2018-01-24T04:32:47.740Z,13.01
2018-01-24T04:35:16.123Z,12.77
2018-01-24T04:37:44.472Z,12.98
2018-01-24T04:40:12.814Z,12.75
2018-01-24T04:42:41.174Z,12.98
2018-01-24T04:45:09.550Z,12.28
2018-01-24T04:47:37.895Z,12.19
2018-01-24T04:50:06.242Z,13.44
2018-01-24T04:52:34.595Z,12.70
2018-01-24T04:55:02.958Z,12.67
2018-01-24T04:57:31.352Z,12.92
2018-01-24T04:59:59.688Z,12.98
2018-01-24T05:02:28.032Z,13.08
2018-01-24T05:04:56.374Z,12.74
2018-01-24T05:07:24.749Z,12.72
2018-01-24T05:09:53.090Z,12.52
2018-01-24T05:12:21.434Z,12.24
2018-01-24T05:14:49.788Z,13.57
2018-01-24T05:17:18.142Z,13.11
2018-01-24T05:19:46.514Z,12.81
2018-01-24T05:22:14.854Z,12.70
2018-01-24T05:24:43.199Z,12.68
2018-01-24T05:27:11.538Z,13.33
2018-01-24T05:29:39.912Z,13.09
2018-01-24T05:32:08.251Z,12.88
2018-01-24T05:34:36.614Z,13.09
2018-01-24T05:37:05.003Z,13.48
2018-01-24T05:39:33.363Z,13.33
2018-01-24T05:42:01.700Z,13.45
2018-01-24T05:44:30.042Z,13.42
2018-01-24T05:46:58.386Z,12.82
2018-01-24T05:49:26.758Z,12.96
2018-01-24T05:51:55.098Z,12.65
2018-01-24T05:54:23.480Z,12.95
2018-01-24T05:56:51.834Z,13.34
2018-01-24T05:59:20.311Z,13.16
2018-01-24T06:01:48.651Z,13.49
2018-01-24T06:04:17.002Z,13.46
2018-01-24T06:06:45.347Z,13.72
2018-01-24T06:09:13.715Z,12.79
2018-01-24T06:11:42.110Z,12.86
2018-01-24T06:14:10.450Z,13.00
2018-01-24T06:16:38.791Z,13.03
2018-01-24T06:19:07.163Z,12.61
2018-01-24T06:21:35.516Z,13.65
2018-01-24T06:24:03.915Z,12.94
2018-01-24T06:26:32.251Z,13.47
2018-01-24T06:29:00.630Z,12.70
2018-01-24T06:31:28.980Z,12.47
2018-01-24T06:33:57.357Z,12.54
2018-01-24T06:36:25.700Z,12.59
2018-01-24T06:38:54.047Z,12.80
2018-01-24T06:41:22.397Z,12.24
2018-01-24T06:43:50.758Z,12.80
2018-01-24T06:46:19.126Z,12.38
2018-01-24T06:48:47.471Z,12.84
2018-01-24T06:51:15.815Z,12.65
2018-01-24T06:53:44.158Z,12.49
2018-01-24T06:56:12.503Z,12.59
2018-01-24T06:58:40.893Z,12.51
2018-01-24T07:01:09.240Z,12.24
2018-01-24T07:03:37.621Z,12.63
2018-01-24T07:06:05.993Z,12.64
2018-01-24T07:08:34.383Z,13.07
2018-01-24T07:11:02.750Z,12.96
2018-01-24T07:13:42.847Z,13.35
2018-01-24T07:16:11.220Z,12.78
2018-01-24T07:18:39.588Z,13.15
2018-01-24T07:21:07.942Z,12.65
2018-01-24T07:23:36.333Z,12.61
2018-01-24T07:26:04.671Z,13.11
2018-01-24T07:28:33.047Z,13.22
2018-01-24T07:31:02.042Z,12.94
2018-01-24T07:33:30.425Z,12.72
2018-01-24T07:35:58.772Z,12.76
2018-01-24T07:38:27.246Z,12.88
2018-01-24T07:40:55.602Z,12.88
2018-01-24T07:43:23.944Z,13.38
2018-01-24T07:45:52.287Z,13.04
2018-01-24T07:48:20.633Z,12.83
2018-01-24T07:50:49.011Z,13.63
2018-01-24T07:53:17.365Z,13.32
2018-01-24T07:55:45.710Z,12.69
2018-01-24T07:58:14.063Z,12.39
2018-01-24T08:00:42.437Z,13.14
2018-01-24T08:03:10.798Z,12.80
2018-01-24T08:05:39.165Z,12.58
2018-01-24T08:08:07.636Z,12.37
2018-01-24T08:10:36.084Z,12.94
2018-01-24T08:13:04.420Z,12.92
2018-01-24T08:15:32.769Z,12.88
2018-01-24T08:18:01.121Z,12.89
2018-01-24T08:20:29.500Z,12.80
2018-01-24T08:22:57.850Z,12.48
2018-01-24T08:25:26.213Z,12.45
2018-01-24T08:27:54.592Z,13.30
2018-01-24T08:30:22.937Z,13.17
2018-01-24T08:32:51.282Z,12.87
2018-01-24T08:35:19.631Z,13.25
2018-01-24T08:37:47.991Z,12.71
2018-01-24T08:40:16.386Z,13.06
2018-01-24T08:42:44.748Z,12.88
2018-01-24T08:45:13.127Z,13.21
2018-01-24T08:47:41.484Z,13.39
2018-01-24T08:50:09.852Z,13.17
2018-01-24T08:52:38.184Z,13.16
2018-01-24T08:55:06.547Z,13.07
2018-01-24T08:57:34.941Z,12.94
2018-01-24T09:00:20.547Z,14.27
2018-01-24T09:03:12.154Z,13.56
2018-01-24T09:06:03.598Z,13.43
2018-01-24T09:08:55.300Z,14.00
2018-01-24T09:11:47.098Z,14.54
2018-01-24T09:14:38.671Z,13.34
2018-01-24T09:17:30.219Z,13.92
2018-01-24T09:20:21.842Z,14.70
2018-01-24T09:23:07.588Z,14.65
2018-01-24T09:25:37.768Z,14.65
2018-01-24T09:28:06.422Z,14.51
2018-01-24T09:30:34.787Z,14.27
2018-01-24T09:33:03.136Z,13.65
2018-01-24T09:35:31.520Z,13.75
2018-01-24T09:38:00.177Z,14.23
2018-01-24T09:40:28.789Z,14.32
2018-01-24T09:42:57.536Z,13.90
2018-01-24T09:45:25.866Z,14.78
2018-01-24T09:47:54.216Z,14.92
2018-01-24T09:50:22.569Z,14.39
2018-01-24T09:52:50.903Z,14.88
2018-01-24T09:55:19.294Z,14.79
2018-01-24T09:57:47.662Z,14.78
2018-01-24T10:00:16.012Z,14.59
2018-01-24T10:02:44.358Z,15.24
2018-01-24T10:05:12.748Z,14.51
2018-01-24T10:07:41.085Z,15.56
2018-01-24T10:10:09.446Z,14.72
2018-01-24T10:12:37.791Z,14.25
2018-01-24T10:15:06.180Z,15.25
2018-01-24T10:17:34.539Z,14.75
2018-01-24T10:20:02.898Z,14.49
2018-01-24T10:22:31.279Z,14.87
2018-01-24T10:24:59.614Z,15.14
2018-01-24T10:27:27.962Z,14.72
2018-01-24T10:29:56.302Z,14.60
2018-01-24T10:32:24.642Z,14.57
2018-01-24T10:34:53.044Z,14.62
2018-01-24T10:37:21.411Z,14.14
2018-01-24T10:39:49.754Z,14.07
2018-01-24T10:42:18.156Z,14.08
2018-01-24T10:44:46.485Z,14.30
2018-01-24T10:47:14.831Z,14.50
2018-01-24T10:49:43.192Z,14.66
2018-01-24T10:52:11.683Z,14.23
2018-01-24T10:54:40.026Z,14.24
2018-01-24T10:57:08.362Z,15.06
2018-01-24T10:59:36.730Z,14.22
2018-01-24T11:02:05.073Z,14.68
2018-01-24T11:04:33.453Z,14.42
2018-01-24T11:07:01.809Z,14.79
2018-01-24T11:09:30.150Z,14.77
2018-01-24T11:11:58.501Z,14.13
2018-01-24T11:14:26.869Z,14.53
2018-01-24T11:16:55.220Z,14.82
2018-01-24T11:19:23.603Z,14.91
2018-01-24T11:21:51.948Z,14.93
2018-01-24T11:24:20.343Z,14.33
2018-01-24T11:26:48.682Z,14.46
2018-01-24T11:29:17.097Z,14.97
2018-01-24T11:31:45.443Z,14.79
2018-01-24T11:34:13.817Z,15.21
2018-01-24T11:36:42.153Z,15.33
2018-01-24T11:39:10.498Z,15.59
2018-01-24T11:41:38.874Z,14.52
2018-01-24T11:44:07.226Z,14.51
2018-01-24T11:46:35.610Z,14.75
2018-01-24T11:49:04.976Z,14.62
2018-01-24T11:51:33.319Z,15.01
2018-01-24T11:54:01.713Z,14.55
2018-01-24T11:56:30.335Z,14.91
2018-01-24T11:58:58.704Z,14.85
2018-01-24T12:01:27.045Z,14.40
2018-01-24T12:03:55.421Z,14.82
2018-01-24T12:06:23.766Z,14.55
2018-01-24T12:08:52.130Z,15.44
2018-01-24T12:11:20.480Z,14.81
2018-01-24T12:13:48.820Z,15.28
2018-01-24T12:16:17.195Z,14.94
2018-01-24T12:18:45.539Z,15.39
2018-01-24T12:21:13.948Z,14.49
2018-01-24T12:23:42.295Z,14.45
2018-01-24T12:26:10.654Z,14.68
2018-01-24T12:28:39.049Z,14.58
2018-01-24T12:31:07.398Z,14.17
2018-01-24T12:33:35.820Z,14.24
2018-01-24T12:36:04.147Z,14.63
2018-01-24T12:38:32.554Z,14.35
2018-01-24T12:41:00.891Z,13.76
2018-01-24T12:43:29.371Z,13.54
2018-01-24T12:45:57.847Z,13.73
2018-01-24T12:48:26.172Z,13.93
2018-01-24T12:50:54.522Z,14.00
2018-01-24T12:53:22.916Z,13.83
2018-01-24T12:55:51.255Z,13.81
2018-01-24T12:58:19.669Z,14.22
2018-01-24T13:00:48.064Z,14.00
2018-01-24T13:03:16.429Z,13.98
2018-01-24T13:05:44.782Z,14.14
2018-01-24T13:08:13.131Z,13.32
2018-01-24T13:10:41.492Z,13.15
2018-01-24T13:13:09.871Z,13.41
2018-01-24T13:15:38.222Z,13.12
2018-01-24T13:18:06.596Z,13.75
2018-01-24T13:20:34.941Z,13.70
2018-01-24T13:23:03.294Z,13.48
2018-01-24T13:25:31.651Z,13.58
2018-01-24T13:28:00.006Z,13.12
2018-01-24T13:30:28.384Z,13.85
2018-01-24T13:32:56.727Z,13.70
2018-01-24T13:35:25.118Z,13.38
2018-01-24T13:37:53.458Z,13.49
2018-01-24T13:40:21.827Z,13.39
2018-01-24T13:42:50.168Z,13.20
2018-01-24T13:45:18.549Z,13.54
2018-01-24T13:47:46.930Z,13.30
2018-01-24T13:50:15.352Z,13.42
2018-01-24T13:52:43.714Z,13.66
2018-01-24T13:55:12.082Z,13.64
2018-01-24T13:57:40.418Z,13.37
2018-01-24T14:00:08.764Z,13.12
2018-01-24T14:02:37.100Z,13.28
2018-01-24T14:05:05.574Z,12.77
2018-01-24T14:07:33.935Z,13.15
2018-01-24T14:10:02.373Z,13.47
2018-01-24T14:12:30.745Z,13.14
2018-01-24T14:14:59.136Z,13.25
2018-01-24T14:17:27.517Z,13.56
2018-01-24T14:19:55.903Z,13.41
2018-01-24T14:22:24.277Z,13.47
2018-01-24T14:24:52.664Z,13.49
2018-01-24T14:27:21.007Z,13.54
2018-01-24T14:29:49.417Z,13.36
2018-01-24T14:32:17.753Z,13.48
2018-01-24T14:34:46.134Z,13.33
2018-01-24T14:37:14.519Z,13.19
2018-01-24T14:39:42.903Z,12.99
2018-01-24T14:42:11.230Z,13.03
2018-01-24T14:44:39.581Z,12.74
2018-01-24T14:47:07.931Z,13.43
2018-01-24T14:49:36.451Z,13.73
2018-01-24T14:52:04.815Z,12.89
2018-01-24T14:54:33.523Z,13.12
2018-01-24T14:57:01.879Z,13.06
2018-01-24T14:59:30.222Z,12.84
2018-01-24T15:01:58.578Z,13.06
2018-01-24T15:04:27.032Z,13.09
2018-01-24T15:06:55.382Z,13.03
2018-01-24T15:09:23.778Z,12.77
2018-01-24T15:11:52.127Z,13.09
2018-01-24T15:14:20.474Z,13.38
2018-01-24T15:16:48.827Z,13.20
2018-01-24T15:19:17.252Z,12.80
2018-01-24T15:21:45.618Z,12.86
2018-01-24T15:24:13.991Z,13.38
2018-01-24T15:26:42.369Z,13.14
2018-01-24T15:29:10.772Z,13.49
2018-01-24T15:31:39.210Z,13.16
2018-01-24T15:34:07.558Z,13.39
2018-01-24T15:36:35.950Z,12.67
2018-01-24T15:39:04.434Z,13.78
2018-01-24T15:41:32.777Z,14.27
2018-01-24T15:44:01.135Z,13.94
2018-01-24T15:46:29.477Z,14.00
2018-01-24T15:48:57.871Z,13.54
2018-01-24T15:51:26.228Z,13.91
2018-01-24T15:53:54.599Z,13.93
2018-01-24T15:56:22.973Z,13.67
2018-01-24T15:58:51.313Z,14.75
2018-01-24T16:01:19.706Z,14.22
2018-01-24T16:03:48.040Z,14.12
2018-01-24T16:06:16.392Z,14.53
2018-01-24T16:08:44.771Z,13.86
2018-01-24T16:11:13.121Z,13.63
2018-01-24T16:13:41.474Z,14.10
2018-01-24T16:16:09.814Z,14.15
2018-01-24T16:18:38.182Z,13.37
2018-01-24T16:21:06.522Z,13.90
2018-01-24T16:23:35.965Z,13.41
2018-01-24T16:26:04.558Z,13.32
2018-01-24T16:28:32.935Z,13.77
2018-01-24T16:31:01.317Z,13.97
2018-01-24T16:33:29.666Z,13.91
2018-01-24T16:35:58.020Z,12.99
2018-01-24T16:38:27.018Z,13.17
2018-01-24T16:40:55.404Z,13.95
2018-01-24T16:43:23.761Z,13.14
2018-01-24T16:45:52.113Z,13.38
2018-01-24T16:48:20.459Z,12.66
2018-01-24T16:50:48.812Z,13.34
2018-01-24T16:53:17.196Z,13.22
2018-01-24T16:55:45.550Z,13.45
2018-01-24T16:58:13.920Z,13.69
2018-01-24T17:00:42.267Z,13.13
2018-01-24T17:03:10.654Z,13.05
2018-01-24T17:05:39.014Z,12.95
2018-01-24T17:08:07.380Z,13.95
2018-01-24T17:10:35.734Z,13.31
2018-01-24T17:13:04.074Z,13.14
2018-01-24T17:15:32.422Z,13.49
2018-01-24T17:18:00.788Z,13.39
2018-01-24T17:20:29.138Z,13.27
2018-01-24T17:22:57.480Z,14.90
2018-01-24T17:25:25.850Z,13.61
2018-01-24T17:27:54.203Z,13.41
2018-01-24T17:30:22.546Z,14.00
2018-01-24T17:32:50.906Z,13.57
2018-01-24T17:35:19.246Z,13.29
2018-01-24T17:37:47.588Z,14.15
2018-01-24T17:40:15.923Z,13.54
2018-01-24T17:42:44.302Z,13.57
2018-01-24T17:45:12.644Z,13.60
2018-01-24T17:47:40.996Z,13.69
2018-01-24T17:50:09.335Z,14.24
2018-01-24T17:52:37.693Z,13.67
2018-01-24T17:55:06.172Z,13.48
2018-01-24T17:57:34.519Z,13.72
2018-01-24T18:00:02.875Z,13.56
2018-01-24T18:02:31.227Z,13.40
2018-01-24T18:04:59.578Z,14.29
2018-01-24T18:07:28.279Z,14.06
2018-01-24T18:09:56.906Z,14.11
2018-01-24T18:12:25.254Z,14.16
2018-01-24T18:14:53.599Z,14.26
2018-01-24T18:17:21.958Z,13.65
2018-01-24T18:19:50.316Z,13.46
2018-01-24T18:22:18.880Z,13.76
2018-01-24T18:24:47.320Z,13.92
2018-01-24T18:27:15.664Z,13.64
2018-01-24T18:29:44.012Z,13.31
2018-01-24T18:32:12.395Z,13.57
2018-01-24T18:34:40.786Z,13.76
2018-01-24T18:37:09.146Z,13.98
2018-01-24T18:39:37.521Z,14.20
2018-01-24T18:42:05.874Z,13.89
2018-01-24T18:44:34.268Z,13.89
2018-01-24T18:47:02.611Z,13.83
2018-01-24T18:49:30.990Z,13.34
2018-01-24T18:51:59.327Z,13.71
2018-01-24T18:54:27.679Z,13.59
2018-01-24T18:56:56.018Z,13.89
2018-01-24T18:59:24.371Z,14.41
2018-01-24T19:01:52.714Z,14.43
2018-01-24T19:04:21.088Z,13.49
2018-01-24T19:06:49.443Z,14.32
2018-01-24T19:09:17.834Z,13.76
2018-01-24T19:11:46.207Z,13.61
2018-01-24T19:14:14.652Z,14.44
2018-01-24T19:16:42.998Z,14.39
2018-01-24T19:19:11.373Z,13.88
2018-01-24T19:21:39.723Z,13.95
2018-01-24T19:24:08.095Z,13.52
2018-01-24T19:26:36.472Z,13.50
2018-01-24T19:29:04.951Z,14.08
2018-01-24T19:31:33.297Z,14.02
2018-01-24T19:34:01.638Z,13.53
2018-01-24T19:36:30.027Z,13.95
2018-01-24T19:38:58.391Z,13.45
2018-01-24T19:41:26.740Z,13.83
2018-01-24T19:43:55.115Z,12.72
2018-01-24T19:46:23.505Z,13.30
2018-01-24T19:48:51.882Z,13.27
2018-01-24T19:51:20.277Z,13.20
2018-01-24T19:53:48.610Z,13.33
2018-01-24T19:56:16.967Z,13.40
2018-01-24T19:58:45.350Z,14.10
2018-01-24T20:01:13.700Z,13.58
2018-01-24T20:03:42.060Z,13.63
2018-01-24T20:06:10.426Z,12.75
2018-01-24T20:08:38.861Z,13.08
2018-01-24T20:11:07.232Z,13.39
2018-01-24T20:13:35.598Z,13.79
2018-01-24T20:16:21.246Z,13.59
2018-01-24T20:18:49.637Z,13.72
2018-01-24T20:21:18.001Z,12.91
2018-01-24T20:23:46.347Z,12.75
2018-01-24T20:26:14.725Z,14.14
2018-01-24T20:28:43.110Z,13.05
2018-01-24T20:31:11.773Z,13.89
2018-01-24T20:33:40.147Z,13.48
2018-01-24T20:36:08.511Z,14.27
2018-01-24T20:38:36.920Z,13.66
2018-01-24T20:41:05.282Z,13.40
2018-01-24T20:43:33.636Z,13.03
2018-01-24T20:46:02.015Z,13.30
2018-01-24T20:48:30.361Z,13.72
2018-01-24T20:50:58.700Z,13.17
2018-01-24T20:53:27.051Z,12.85
2018-01-24T20:55:55.426Z,13.71
2018-01-24T20:58:23.820Z,13.53
2018-01-24T21:00:52.195Z,13.49
2018-01-24T21:03:20.608Z,12.47
2018-01-24T21:05:49.079Z,12.98
2018-01-24T21:08:17.427Z,13.73
2018-01-24T21:10:45.767Z,13.33
2018-01-24T21:13:14.118Z,13.73
2018-01-24T21:15:42.476Z,12.85
2018-01-24T21:18:10.862Z,13.15
2018-01-24T21:20:39.206Z,12.75
2018-01-24T21:23:07.629Z,12.91
2018-01-24T21:25:41.364Z,13.12
2018-01-24T21:28:28.219Z,13.06
2018-01-24T21:31:08.186Z,12.71
2018-01-24T21:33:48.861Z,13.36
2018-01-24T21:36:32.361Z,13.75
2018-01-24T21:39:00.831Z,13.36
2018-01-24T21:41:29.190Z,13.75
2018-01-24T21:43:57.583Z,13.38
2018-01-24T21:46:25.942Z,13.12
2018-01-24T21:48:54.282Z,13.08
2018-01-24T21:51:22.640Z,13.84
2018-01-24T21:53:51.027Z,13.52
2018-01-24T21:56:19.430Z,13.54
2018-01-24T21:58:47.773Z,12.78
2018-01-24T22:01:16.122Z,12.92
2018-01-24T22:03:44.504Z,12.66
2018-01-24T22:06:12.891Z,13.09
2018-01-24T22:08:41.264Z,12.80
2018-01-24T22:11:09.612Z,13.16
2018-01-24T22:13:37.988Z,12.95
2018-01-24T22:16:06.367Z,12.89
2018-01-24T22:18:34.715Z,13.52
2018-01-24T22:21:03.062Z,12.37
2018-01-24T22:23:31.416Z,13.40
2018-01-24T22:25:59.794Z,12.40
2018-01-24T22:28:28.135Z,13.21
2018-01-24T22:30:56.487Z,12.35
2018-01-24T22:33:24.891Z,12.75
2018-01-24T22:35:53.218Z,12.97
2018-01-24T22:38:21.587Z,13.15
2018-01-24T22:40:49.959Z,13.02
2018-01-24T22:43:18.310Z,12.63
2018-01-24T22:45:46.691Z,13.45
2018-01-24T22:48:20.669Z,13.30
2018-01-24T22:50:49.052Z,13.97
2018-01-24T22:53:17.399Z,13.84
2018-01-24T22:55:45.999Z,13.26
2018-01-24T22:58:14.395Z,13.21
2018-01-24T23:00:42.752Z,13.47
2018-01-24T23:03:11.125Z,12.80
2018-01-24T23:05:39.501Z,13.18
2018-01-24T23:08:07.846Z,13.41
2018-01-24T23:10:36.182Z,13.20
2018-01-24T23:13:04.531Z,13.41
2018-01-24T23:15:32.889Z,12.86
2018-01-24T23:18:01.251Z,13.40
2018-01-24T23:20:29.602Z,13.69
2018-01-24T23:22:57.967Z,13.43
2018-01-24T23:25:26.312Z,13.33
2018-01-24T23:27:54.656Z,14.21
2018-01-24T23:30:22.998Z,13.32
2018-01-24T23:32:51.337Z,12.81
2018-01-24T23:35:19.692Z,13.38
2018-01-24T23:37:48.034Z,13.36
2018-01-24T23:40:16.379Z,13.20
2018-01-24T23:42:44.746Z,13.25
2018-01-24T23:45:13.096Z,13.05
2018-01-24T23:47:41.438Z,13.65
2018-01-24T23:50:09.783Z,13.70
2018-01-24T23:52:38.122Z,12.88
2018-01-24T23:55:06.463Z,12.93
2018-01-24T23:57:34.831Z,12.99
